| time (UTC) | temp F | wind direction | speed knots | gust knots | rain 1hr in | rain 24hr in | rain mn in | humidity % | barometer mb |
| 20260507205048 | 73 | 321 | 4.3 | 5.2 | 0.00 | 0.00 | 0.00 | 29 | 1012.7 |
| 20260507204545 | 72 | 301 | 2.6 | 3.5 | 0.00 | 0.00 | 0.00 | 30 | 1013.0 |
| 20260507204043 | 71 | 254 | 5.2 | 6.1 | 0.00 | 0.00 | 0.00 | 31 | 1013.0 |
| 20260507203540 | 71 | 355 | 3.5 | 5.2 | 0.00 | 0.00 | 0.00 | 30 | 1012.9 |
| 20260507203038 | 71 | 101 | 1.7 | 2.6 | 0.00 | 0.00 | 0.00 | 32 | 1013.0 |
| 20260507202533 | 71 | 202 | 2.6 | 5.2 | 0.00 | 0.00 | 0.00 | 29 | 1013.0 |
| 20260507202029 | 70 | 1 | 1.7 | 2.6 | 0.00 | 0.00 | 0.00 | 33 | 1013.0 |
| 20260507201525 | 70 | 316 | 3.5 | 5.2 | 0.00 | 0.00 | 0.00 | 31 | 1013.1 |
| 20260507201021 | 71 | 353 | 3.5 | 6.1 | 0.00 | 0.00 | 0.00 | 31 | 1013.2 |
| 20260507200517 | 71 | 142 | 2.6 | 2.6 | 0.00 | 0.00 | 0.00 | 29 | 1013.2 |
| 20260507200014 | 70 | 92 | 1.7 | 2.6 | 0.00 | 0.00 | 0.00 | 28 | 1013.2 |
| 20260507195511 | 70 | 175 | 3.5 | 6.1 | 0.00 | 0.00 | 0.00 | 30 | 1013.2 |
| 20260507195008 | 69 | 192 | 1.7 | 1.7 | 0.00 | 0.00 | 0.00 | 31 | 1013.1 |
| 20260507194504 | 69 | 106 | 1.7 | 1.7 | 0.00 | 0.00 | 0.00 | 28 | 1013.2 |
| 20260507194000 | 69 | 102 | 0.9 | 0.9 | 0.00 | 0.00 | 0.00 | 29 | 1013.4 |
| 20260507193458 | 70 | 266 | 1.7 | 2.6 | 0.00 | 0.00 | 0.00 | 29 | 1013.2 |
| 20260507192954 | 70 | 189 | 0.9 | 1.7 | 0.00 | 0.00 | 0.00 | 32 | 1013.5 |
| 20260507192450 | 69 | 39 | 1.7 | 1.7 | 0.00 | 0.00 | 0.00 | 31 | 1013.3 |
| 20260507191948 | 70 | 131 | 0.0 | 0.0 | 0.00 | 0.00 | 0.00 | 30 | 1013.5 |
| 20260507191443 | 69 | 196 | 2.6 | 3.5 | 0.00 | 0.00 | 0.00 | 30 | 1013.4 |
| 20260507190940 | 69 | 163 | 0.9 | 1.7 | 0.00 | 0.00 | 0.00 | 32 | 1013.6 |
| 20260507190438 | 68 | 202 | 1.7 | 2.6 | 0.00 | 0.00 | 0.00 | 32 | 1013.6 |
| 20260507185937 | 68 | 278 | 5.2 | 6.1 | 0.00 | 0.00 | 0.00 | 33 | 1013.4 |
| 20260507185433 | 68 | 33 | 3.5 | 5.2 | 0.00 | 0.00 | 0.00 | 35 | 1013.6 |
| 20260507184930 | 68 | 312 | 1.7 | 1.7 | 0.00 | 0.00 | 0.00 | 35 | 1013.5 |
| 20260507184428 | 69 | 226 | 2.6 | 2.6 | 0.00 | 0.00 | 0.00 | 33 | 1013.6 |
| 20260507183926 | 66 | 88 | 0.9 | 1.7 | 0.00 | 0.00 | 0.00 | 34 | 1013.6 |
| 20260507183422 | 66 | 233 | 0.9 | 1.7 | 0.00 | 0.00 | 0.00 | 35 | 1014.0 |
| 20260507182920 | 68 | 284 | 3.5 | 5.2 | 0.00 | 0.00 | 0.00 | 35 | 1013.7 |
| 20260507182415 | 68 | 106 | 0.9 | 1.7 | 0.00 | 0.00 | 0.00 | 36 | 1013.7 |
| 20260507181912 | 66 | 158 | 1.7 | 1.7 | 0.00 | 0.00 | 0.00 | 36 | 1013.7 |
| 20260507181408 | 65 | 60 | 2.6 | 2.6 | 0.00 | 0.00 | 0.00 | 38 | 1013.9 |
| 20260507180905 | 66 | 153 | 1.7 | 2.6 | 0.00 | 0.00 | 0.00 | 39 | 1013.9 |
| 20260507180401 | 67 | 59 | 0.9 | 1.7 | 0.00 | 0.00 | 0.00 | 36 | 1013.8 |
| 20260507175857 | 66 | 130 | 0.0 | 0.0 | 0.00 | 0.00 | 0.00 | 36 | 1013.9 |
| 20260507175354 | 64 | 78 | 1.7 | 1.7 | 0.00 | 0.00 | 0.00 | 39 | 1014.0 |
| 20260507174852 | 66 | 282 | 5.2 | 6.1 | 0.00 | 0.00 | 0.00 | 37 | 1013.9 |
| 20260507174349 | 65 | 117 | 1.7 | 1.7 | 0.00 | 0.00 | 0.00 | 38 | 1014.0 |
| 20260507173847 | 65 | 113 | 0.0 | 0.9 | 0.00 | 0.00 | 0.00 | 40 | 1014.0 |
| 20260507173343 | 65 | 28 | 0.9 | 1.7 | 0.00 | 0.00 | 0.00 | 39 | 1014.0 |
| 20260507172840 | 65 | 172 | 0.9 | 1.7 | 0.00 | 0.00 | 0.00 | 39 | 1014.2 |
| 20260507172337 | 65 | 2 | 3.5 | 5.2 | 0.00 | 0.00 | 0.00 | 39 | 1014.0 |
| 20260507171832 | 65 | 274 | 1.7 | 2.6 | 0.00 | 0.00 | 0.00 | 39 | 1014.0 |
| 20260507171329 | 64 | 70 | 2.6 | 3.5 | 0.00 | 0.00 | 0.00 | 38 | 1014.3 |
| 20260507170827 | 64 | 185 | 1.7 | 1.7 | 0.00 | 0.00 | 0.00 | 40 | 1013.9 |
| 20260507170323 | 65 | 194 | 1.7 | 1.7 | 0.00 | 0.00 | 0.00 | 41 | 1013.8 |
| 20260507165819 | 65 | 144 | 0.9 | 1.7 | 0.00 | 0.00 | 0.00 | 42 | 1014.2 |
| 20260507165315 | 64 | 137 | 2.6 | 2.6 | 0.00 | 0.00 | 0.00 | 41 | 1014.2 |
| 20260507164811 | 66 | 174 | 1.7 | 2.6 | 0.00 | 0.00 | 0.00 | 41 | 1013.8 |
| 20260507164308 | 64 | 94 | 0.0 | 0.9 | 0.00 | 0.00 | 0.00 | 41 | 1014.0 |
| 20260507163806 | 63 | 96 | 0.0 | 0.9 | 0.00 | 0.00 | 0.00 | 45 | 1013.8 |
| 20260507163303 | 64 | 105 | 1.7 | 2.6 | 0.00 | 0.00 | 0.00 | 43 | 1013.9 |
| 20260507162759 | 61 | 112 | 0.9 | 0.9 | 0.00 | 0.00 | 0.00 | 48 | 1014.2 |
| 20260507162255 | 61 | 46 | 3.5 | 3.5 | 0.00 | 0.00 | 0.00 | 46 | 1014.0 |
| 20260507161752 | 62 | 64 | 2.6 | 3.5 | 0.00 | 0.00 | 0.00 | 48 | 1013.9 |
| 20260507161249 | 62 | 85 | 0.9 | 0.9 | 0.00 | 0.00 | 0.00 | 49 | 1014.2 |
| 20260507160744 | 62 | 88 | 0.9 | 0.9 | 0.00 | 0.00 | 0.00 | 48 | 1013.7 |
| 20260507160241 | 62 | 102 | 0.9 | 0.9 | 0.00 | 0.00 | 0.00 | 46 | 1013.6 |
| 20260507155737 | 61 | 151 | 0.9 | 0.9 | 0.00 | 0.00 | 0.00 | 48 | 1013.7 |
| 20260507155233 | 59 | 111 | 0.0 | 0.9 | 0.00 | 0.00 | 0.00 | 56 | 1014.0 |
| 20260507154730 | 60 | 92 | 1.7 | 1.7 | 0.00 | 0.00 | 0.00 | 57 | 1014.0 |
| 20260507154228 | 59 | 131 | 0.0 | 0.0 | 0.00 | 0.00 | 0.00 | 58 | 1013.7 |
| 20260507153724 | 57 | 125 | 0.0 | 0.0 | 0.00 | 0.00 | 0.00 | 60 | 1014.2 |
| 20260507153220 | 56 | 109 | 0.0 | 0.0 | 0.00 | 0.00 | 0.00 | 63 | 1014.0 |
| 20260507152717 | 54 | 130 | 0.0 | 0.0 | 0.00 | 0.00 | 0.00 | 66 | 1014.0 |
| 20260507152213 | 53 | 169 | 0.9 | 0.9 | 0.00 | 0.00 | 0.00 | 69 | 1014.0 |
| 20260507151709 | 53 | 94 | 0.9 | 0.9 | 0.00 | 0.00 | 0.00 | 70 | 1014.4 |
| 20260507151206 | 52 | 147 | 0.0 | 0.0 | 0.00 | 0.00 | 0.00 | 71 | 1014.0 |
| 20260507150703 | 52 | 151 | 0.0 | 0.0 | 0.00 | 0.00 | 0.00 | 69 | 1014.2 |
| 20260507150200 | 52 | 120 | 0.0 | 0.0 | 0.00 | 0.00 | 0.00 | 67 | 1014.3 |
| 20260507145655 | 52 | 138 | 0.0 | 0.0 | 0.00 | 0.00 | 0.00 | 68 | 1013.9 |
| 20260507145152 | 51 | 114 | 0.0 | 0.0 | 0.00 | 0.00 | 0.00 | 70 | 1013.9 |
| 20260507144649 | 51 | 114 | 0.0 | 0.9 | 0.00 | 0.00 | 0.00 | 69 | 1013.9 |
| 20260507144147 | 51 | 91 | 0.0 | 0.0 | 0.00 | 0.00 | 0.00 | 70 | 1013.8 |
| 20260507143644 | 51 | 137 | 0.0 | 0.0 | 0.00 | 0.00 | 0.00 | 70 | 1013.9 |
| 20260507143141 | 51 | 132 | 0.0 | 0.0 | 0.00 | 0.00 | 0.00 | 70 | 1013.7 |
| 20260507142636 | 50 | 139 | 0.0 | 0.0 | 0.00 | 0.00 | 0.00 | 71 | 1013.8 |
| 20260507142133 | 50 | 151 | 0.0 | 0.0 | 0.00 | 0.00 | 0.00 | 72 | 1013.8 |
| 20260507141629 | 49 | 161 | 0.0 | 0.0 | 0.00 | 0.00 | 0.00 | 73 | 1013.7 |
| 20260507141127 | 49 | 128 | 0.0 | 0.0 | 0.00 | 0.00 | 0.00 | 73 | 1013.7 |
| 20260507140623 | 49 | 164 | 1.7 | 1.7 | 0.00 | 0.00 | 0.00 | 74 | 1013.8 |
| 20260507140120 | 49 | 120 | 0.0 | 0.0 | 0.00 | 0.00 | 0.00 | 74 | 1013.7 |
| 20260507135617 | 49 | 117 | 0.0 | 0.9 | 0.00 | 0.00 | 0.00 | 73 | 1013.6 |
| 20260507135115 | 50 | 110 | 0.0 | 0.0 | 0.00 | 0.00 | 0.00 | 70 | 1013.7 |
| 20260507134611 | 49 | 137 | 0.0 | 0.0 | 0.00 | 0.00 | 0.00 | 71 | 1013.4 |
| 20260507134107 | 49 | 140 | 0.0 | 0.0 | 0.00 | 0.00 | 0.00 | 71 | 1013.5 |
| 20260507133603 | 49 | 152 | 0.0 | 0.0 | 0.00 | 0.00 | 0.00 | 70 | 1013.6 |
| 20260507133101 | 48 | 116 | 0.0 | 0.0 | 0.00 | 0.00 | 0.00 | 71 | 1013.6 |
| 20260507132557 | 49 | 151 | 0.0 | 0.0 | 0.00 | 0.00 | 0.00 | 70 | 1013.5 |
| 20260507132054 | 48 | 132 | 0.0 | 0.0 | 0.00 | 0.00 | 0.00 | 70 | 1013.4 |
| 20260507131551 | 48 | 114 | 1.7 | 1.7 | 0.00 | 0.00 | 0.00 | 72 | 1013.2 |
| 20260507131048 | 47 | 134 | 0.0 | 0.0 | 0.00 | 0.00 | 0.00 | 72 | 1013.3 |
| 20260507130545 | 48 | 96 | 0.0 | 0.0 | 0.00 | 0.00 | 0.00 | 72 | 1013.5 |
| 20260507130043 | 46 | 136 | 0.0 | 0.0 | 0.00 | 0.00 | 0.00 | 74 | 1013.5 |
| 20260507125542 | 46 | 136 | 0.0 | 0.0 | 0.00 | 0.00 | 0.00 | 75 | 1013.4 |
| 20260507125038 | 45 | 148 | 0.0 | 0.0 | 0.00 | 0.00 | 0.00 | 75 | 1013.4 |
| 20260507124535 | 44 | 133 | 0.0 | 0.0 | 0.00 | 0.00 | 0.00 | 77 | 1013.4 |
| 20260507124033 | 44 | 156 | 0.9 | 0.9 | 0.00 | 0.00 | 0.00 | 77 | 1013.3 |
| 20260507123531 | 44 | 150 | 0.0 | 0.0 | 0.00 | 0.00 | 0.00 | 79 | 1013.4 |
| 20260507123027 | 44 | 163 | 0.9 | 0.9 | 0.00 | 0.00 | 0.00 | 79 | 1013.4 |
| 20260507122522 | 44 | 150 | 0.9 | 0.9 | 0.00 | 0.00 | 0.00 | 78 | 1013.5 |
| 20260507122018 | 45 | 153 | 1.7 | 1.7 | 0.00 | 0.00 | 0.00 | 77 | 1013.3 |
| 20260507121514 | 45 | 162 | 1.7 | 1.7 | 0.00 | 0.00 | 0.00 | 76 | 1013.4 |
| 20260507121010 | 45 | 175 | 1.7 | 1.7 | 0.00 | 0.00 | 0.00 | 76 | 1013.5 |
| 20260507120506 | 45 | 158 | 0.0 | 0.0 | 0.00 | 0.00 | 0.00 | 78 | 1013.2 |
| 20260507120004 | 45 | 148 | 0.0 | 0.0 | 0.00 | 0.00 | 0.00 | 76 | 1013.2 |
| 20260507115459 | 45 | 157 | 0.0 | 0.0 | 0.00 | 0.00 | 0.00 | 76 | 1013.4 |
| 20260507114955 | 45 | 177 | 1.7 | 2.6 | 0.00 | 0.00 | 0.00 | 77 | 1013.3 |
| 20260507114452 | 44 | 158 | 0.9 | 0.9 | 0.00 | 0.00 | 0.00 | 79 | 1013.4 |
| 20260507113949 | 44 | 163 | 0.9 | 0.9 | 0.00 | 0.00 | 0.00 | 79 | 1013.1 |
| 20260507113446 | 44 | 123 | 0.0 | 0.0 | 0.00 | 0.00 | 0.00 | 80 | 1013.1 |
| 20260507112943 | 44 | 147 | 0.0 | 0.0 | 0.00 | 0.00 | 0.00 | 79 | 1013.4 |
| 20260507112441 | 45 | 147 | 0.0 | 0.0 | 0.00 | 0.00 | 0.00 | 80 | 1013.2 |
| 20260507111937 | 45 | 137 | 0.0 | 0.0 | 0.00 | 0.00 | 0.00 | 78 | 1013.5 |
| 20260507111435 | 46 | 147 | 0.0 | 0.0 | 0.00 | 0.00 | 0.00 | 78 | 1013.4 |
| 20260507110931 | 46 | 145 | 0.0 | 0.0 | 0.00 | 0.00 | 0.00 | 77 | 1013.3 |
| 20260507110427 | 47 | 97 | 1.7 | 1.7 | 0.00 | 0.00 | 0.00 | 75 | 1013.5 |
| 20260507105924 | 46 | 147 | 0.0 | 0.0 | 0.00 | 0.00 | 0.00 | 75 | 1013.6 |
| 20260507105421 | 47 | 149 | 0.9 | 1.7 | 0.00 | 0.00 | 0.00 | 74 | 1013.4 |
| 20260507104918 | 47 | 117 | 0.0 | 0.0 | 0.00 | 0.00 | 0.00 | 73 | 1013.3 |
| 20260507104415 | 47 | 169 | 0.0 | 0.0 | 0.00 | 0.00 | 0.00 | 73 | 1013.3 |
| 20260507103910 | 47 | 130 | 0.0 | 0.0 | 0.00 | 0.00 | 0.00 | 73 | 1013.2 |
| 20260507103407 | 48 | 131 | 0.0 | 0.0 | 0.00 | 0.00 | 0.00 | 72 | 1013.4 |
| 20260507102903 | 48 | 144 | 0.0 | 0.0 | 0.00 | 0.00 | 0.00 | 72 | 1013.2 |
| 20260507102400 | 49 | 135 | 0.0 | 0.0 | 0.00 | 0.00 | 0.00 | 70 | 1013.2 |
| 20260507101857 | 48 | 248 | 2.6 | 2.6 | 0.00 | 0.00 | 0.00 | 71 | 1013.3 |
| 20260507101356 | 48 | 135 | 0.9 | 0.9 | 0.00 | 0.00 | 0.00 | 72 | 1013.5 |
| 20260507100854 | 48 | 202 | 2.6 | 2.6 | 0.00 | 0.00 | 0.00 | 74 | 1013.5 |
| 20260507100351 | 48 | 122 | 0.0 | 0.0 | 0.00 | 0.00 | 0.00 | 74 | 1013.4 |
| 20260507095849 | 48 | 122 | 0.0 | 0.0 | 0.00 | 0.00 | 0.00 | 73 | 1013.5 |
| 20260507095346 | 48 | 131 | 0.0 | 0.0 | 0.00 | 0.00 | 0.00 | 72 | 1013.6 |
| 20260507094843 | 48 | 116 | 0.0 | 0.0 | 0.00 | 0.00 | 0.00 | 71 | 1013.6 |
| 20260507094339 | 49 | 149 | 0.0 | 0.0 | 0.00 | 0.00 | 0.00 | 71 | 1013.4 |
| 20260507093837 | 49 | 116 | 0.0 | 0.0 | 0.00 | 0.00 | 0.00 | 70 | 1013.5 |
| 20260507093335 | 50 | 160 | 0.0 | 0.0 | 0.00 | 0.00 | 0.00 | 67 | 1013.4 |
| 20260507092833 | 50 | 168 | 0.0 | 0.0 | 0.00 | 0.00 | 0.00 | 69 | 1013.4 |
| 20260507092329 | 50 | 152 | 0.0 | 0.0 | 0.00 | 0.00 | 0.00 | 68 | 1013.5 |
| 20260507091825 | 50 | 156 | 0.9 | 0.9 | 0.00 | 0.00 | 0.00 | 67 | 1013.3 |
| 20260507091322 | 51 | 150 | 0.9 | 0.9 | 0.00 | 0.00 | 0.00 | 66 | 1013.3 |
| 20260507090817 | 51 | 123 | 0.0 | 0.0 | 0.00 | 0.00 | 0.00 | 65 | 1013.4 |
| 20260507090314 | 51 | 147 | 0.0 | 0.0 | 0.00 | 0.00 | 0.00 | 65 | 1013.4 |
| 20260507085811 | 51 | 119 | 0.0 | 0.0 | 0.00 | 0.00 | 0.00 | 66 | 1013.4 |
| 20260507085308 | 51 | 112 | 0.0 | 0.9 | 0.00 | 0.00 | 0.00 | 65 | 1013.3 |
| 20260507084805 | 51 | 163 | 0.9 | 0.9 | 0.00 | 0.00 | 0.00 | 65 | 1013.2 |
| 20260507084301 | 51 | 137 | 0.0 | 0.0 | 0.00 | 0.00 | 0.00 | 64 | 1013.2 |
| 20260507083759 | 52 | 128 | 0.0 | 0.0 | 0.00 | 0.00 | 0.00 | 62 | 1013.5 |
| 20260507083255 | 53 | 153 | 0.0 | 0.0 | 0.00 | 0.00 | 0.00 | 60 | 1013.4 |
| 20260507082751 | 54 | 126 | 0.0 | 0.0 | 0.00 | 0.00 | 0.00 | 56 | 1013.4 |
| 20260507082247 | 55 | 151 | 0.0 | 0.0 | 0.00 | 0.00 | 0.00 | 55 | 1013.2 |
| 20260507081744 | 55 | 151 | 0.0 | 0.0 | 0.00 | 0.00 | 0.00 | 55 | 1013.4 |
| 20260507081240 | 56 | 134 | 0.0 | 0.0 | 0.00 | 0.00 | 0.00 | 52 | 1013.2 |
| 20260507080737 | 57 | 132 | 0.0 | 0.0 | 0.00 | 0.00 | 0.00 | 51 | 1013.2 |
| 20260507080233 | 57 | 155 | 0.0 | 0.0 | 0.00 | 0.00 | 0.00 | 50 | 1013.2 |
| 20260507075729 | 58 | 155 | 0.0 | 0.0 | 0.00 | 0.00 | 0.00 | 47 | 1013.4 |
| 20260507075225 | 59 | 141 | 0.0 | 0.0 | 0.00 | 0.00 | 0.00 | 47 | 1013.2 |
| 20260507074721 | 59 | 119 | 0.0 | 0.0 | 0.00 | 0.00 | 0.00 | 45 | 1013.5 |
| 20260507074220 | 61 | 138 | 0.9 | 0.9 | 0.00 | 0.00 | 0.00 | 46 | 1013.2 |
| 20260507073716 | 61 | 169 | 0.9 | 1.7 | 0.00 | 0.00 | 0.00 | 42 | 1013.1 |
| 20260507073213 | 61 | 131 | 0.9 | 0.9 | 0.00 | 0.00 | 0.00 | 44 | 1013.2 |
| 20260507072711 | 61 | 203 | 0.0 | 0.9 | 0.00 | 0.00 | 0.00 | 44 | 1013.2 |
| 20260507072208 | 61 | 181 | 0.9 | 1.7 | 0.00 | 0.00 | 0.00 | 43 | 1013.2 |
| 20260507071705 | 62 | 224 | 1.7 | 1.7 | 0.00 | 0.00 | 0.00 | 42 | 1013.2 |
| 20260507071201 | 62 | 217 | 1.7 | 2.6 | 0.00 | 0.00 | 0.00 | 41 | 1013.3 |
| 20260507070659 | 62 | 148 | 0.0 | 0.0 | 0.00 | 0.00 | 0.00 | 41 | 1013.2 |
| 20260507070155 | 62 | 189 | 1.7 | 2.6 | 0.00 | 0.00 | 0.00 | 41 | 1013.3 |
| 20260507065652 | 62 | 163 | 3.5 | 5.2 | 0.00 | 0.00 | 0.00 | 42 | 1013.1 |
| 20260507065149 | 62 | 189 | 3.5 | 5.2 | 0.00 | 0.00 | 0.00 | 41 | 1013.2 |
| 20260507064646 | 62 | 132 | 3.5 | 5.2 | 0.00 | 0.00 | 0.00 | 41 | 1013.3 |
| 20260507064144 | 61 | 180 | 2.6 | 2.6 | 0.00 | 0.00 | 0.00 | 45 | 1013.3 |
| 20260507063642 | 60 | 177 | 2.6 | 5.2 | 0.00 | 0.00 | 0.00 | 47 | 1013.3 |
| 20260507063138 | 61 | 149 | 0.0 | 0.0 | 0.00 | 0.00 | 0.00 | 48 | 1013.5 |
| 20260507062635 | 63 | 148 | 0.9 | 0.9 | 0.00 | 0.00 | 0.00 | 46 | 1013.3 |
| 20260507062133 | 64 | 219 | 0.9 | 1.7 | 0.00 | 0.00 | 0.00 | 41 | 1013.4 |
| 20260507061631 | 64 | 189 | 1.7 | 1.7 | 0.00 | 0.00 | 0.00 | 40 | 1013.4 |
| 20260507061128 | 63 | 147 | 0.0 | 0.9 | 0.00 | 0.00 | 0.00 | 43 | 1013.4 |
| 20260507060626 | 64 | 173 | 0.9 | 1.7 | 0.00 | 0.00 | 0.00 | 41 | 1013.1 |
| 20260507060122 | 64 | 326 | 5.2 | 7.0 | 0.00 | 0.00 | 0.00 | 40 | 1013.4 |
| 20260507055618 | 63 | 166 | 0.9 | 0.9 | 0.00 | 0.00 | 0.00 | 43 | 1013.4 |
| 20260507055114 | 63 | 142 | 0.0 | 0.0 | 0.00 | 0.00 | 0.00 | 43 | 1013.2 |
| 20260507054610 | 64 | 155 | 0.0 | 0.0 | 0.00 | 0.00 | 0.00 | 42 | 1013.2 |
| 20260507054107 | 64 | 159 | 0.9 | 0.9 | 0.00 | 0.00 | 0.00 | 41 | 1013.0 |
| 20260507053605 | 64 | 218 | 1.7 | 2.6 | 0.00 | 0.00 | 0.00 | 41 | 1013.4 |
| 20260507053104 | 63 | 271 | 3.5 | 5.2 | 0.00 | 0.00 | 0.00 | 43 | 1013.3 |
| 20260507052601 | 63 | 241 | 2.6 | 2.6 | 0.00 | 0.00 | 0.00 | 44 | 1013.1 |
| 20260507052058 | 63 | 140 | 1.7 | 1.7 | 0.00 | 0.00 | 0.00 | 42 | 1013.1 |
| 20260507051555 | 64 | 200 | 0.9 | 0.9 | 0.00 | 0.00 | 0.00 | 42 | 1013.2 |
| 20260507051052 | 63 | 321 | 1.7 | 2.6 | 0.00 | 0.00 | 0.00 | 42 | 1013.1 |
| 20260507050549 | 63 | 131 | 0.0 | 0.0 | 0.00 | 0.00 | 0.00 | 43 | 1012.9 |
| 20260507050045 | 63 | 256 | 2.6 | 2.6 | 0.00 | 0.00 | 0.00 | 45 | 1013.0 |
| 20260507045542 | 64 | 155 | 0.0 | 0.9 | 0.00 | 0.00 | 0.00 | 43 | 1013.1 |
| 20260507045039 | 64 | 172 | 3.5 | 3.5 | 0.00 | 0.00 | 0.00 | 42 | 1013.1 |
| 20260507044536 | 65 | 173 | 3.5 | 3.5 | 0.00 | 0.00 | 0.00 | 42 | 1013.0 |
| 20260507044033 | 66 | 148 | 2.6 | 3.5 | 0.00 | 0.00 | 0.00 | 39 | 1012.9 |
| 20260507043528 | 65 | 214 | 2.6 | 2.6 | 0.00 | 0.00 | 0.00 | 40 | 1013.2 |
| 20260507043026 | 66 | 185 | 0.9 | 1.7 | 0.00 | 0.00 | 0.00 | 40 | 1013.0 |
| 20260507042522 | 66 | 210 | 0.9 | 1.7 | 0.00 | 0.00 | 0.00 | 40 | 1013.0 |
| 20260507042017 | 66 | 224 | 5.2 | 6.1 | 0.00 | 0.00 | 0.00 | 39 | 1013.2 |
| 20260507041515 | 65 | 157 | 1.7 | 1.7 | 0.00 | 0.00 | 0.00 | 41 | 1013.2 |
| 20260507041011 | 65 | 198 | 0.9 | 1.7 | 0.00 | 0.00 | 0.00 | 42 | 1013.2 |
| 20260507040508 | 66 | 141 | 0.0 | 0.0 | 0.00 | 0.00 | 0.00 | 42 | 1013.1 |
| 20260507040004 | 67 | 209 | 2.6 | 3.5 | 0.00 | 0.00 | 0.00 | 39 | 1013.1 |
| 20260507035500 | 67 | 249 | 2.6 | 3.5 | 0.00 | 0.00 | 0.00 | 39 | 1012.9 |
| 20260507034956 | 67 | 218 | 2.6 | 3.5 | 0.00 | 0.00 | 0.00 | 38 | 1012.9 |
| 20260507034453 | 67 | 184 | 0.9 | 1.7 | 0.00 | 0.00 | 0.00 | 40 | 1012.7 |
| 20260507033952 | 66 | 204 | 2.6 | 2.6 | 0.00 | 0.00 | 0.00 | 40 | 1012.4 |
| 20260507033449 | 66 | 142 | 0.0 | 0.0 | 0.00 | 0.00 | 0.00 | 42 | 1012.6 |
| 20260507032946 | 66 | 147 | 1.7 | 1.7 | 0.00 | 0.00 | 0.00 | 42 | 1012.3 |
| 20260507032443 | 67 | 152 | 0.9 | 0.9 | 0.00 | 0.00 | 0.00 | 41 | 1012.3 |
| 20260507031939 | 67 | 164 | 1.7 | 1.7 | 0.00 | 0.00 | 0.00 | 40 | 1012.4 |
| 20260507031435 | 68 | 182 | 1.7 | 2.6 | 0.00 | 0.00 | 0.00 | 39 | 1012.4 |
| 20260507030932 | 68 | 157 | 0.9 | 0.9 | 0.00 | 0.00 | 0.00 | 38 | 1012.3 |
| 20260507030430 | 68 | 147 | 2.6 | 3.5 | 0.00 | 0.00 | 0.00 | 39 | 1012.3 |
| 20260507025927 | 69 | 175 | 1.7 | 1.7 | 0.00 | 0.00 | 0.00 | 36 | 1012.1 |
| 20260507025424 | 69 | 150 | 1.7 | 1.7 | 0.00 | 0.00 | 0.00 | 37 | 1012.3 |
| 20260507024922 | 70 | 237 | 2.6 | 2.6 | 0.00 | 0.00 | 0.00 | 36 | 1012.3 |
| 20260507024419 | 70 | 187 | 1.7 | 1.7 | 0.00 | 0.00 | 0.00 | 36 | 1012.3 |
| 20260507023914 | 70 | 189 | 1.7 | 1.7 | 0.00 | 0.00 | 0.00 | 35 | 1012.0 |
| 20260507023412 | 71 | 267 | 7.8 | 9.6 | 0.00 | 0.00 | 0.00 | 35 | 1012.4 |
| 20260507022909 | 71 | 203 | 3.5 | 3.5 | 0.00 | 0.00 | 0.00 | 35 | 1011.9 |
| 20260507022405 | 71 | 254 | 6.1 | 8.7 | 0.00 | 0.00 | 0.00 | 34 | 1011.8 |
| 20260507021901 | 71 | 241 | 3.5 | 3.5 | 0.00 | 0.00 | 0.00 | 34 | 1012.2 |
| 20260507021356 | 72 | 271 | 6.1 | 7.8 | 0.00 | 0.00 | 0.00 | 34 | 1012.2 |
| 20260507020855 | 72 | 265 | 6.1 | 7.0 | 0.00 | 0.00 | 0.00 | 34 | 1012.1 |
| 20260507020351 | 72 | 265 | 5.2 | 6.1 | 0.00 | 0.00 | 0.00 | 33 | 1012.0 |
| 20260507015848 | 73 | 286 | 5.2 | 7.8 | 0.00 | 0.00 | 0.00 | 33 | 1012.0 |
| 20260507015346 | 73 | 242 | 6.1 | 7.0 | 0.00 | 0.00 | 0.00 | 33 | 1012.0 |
| 20260507014843 | 73 | 309 | 5.2 | 7.0 | 0.00 | 0.00 | 0.00 | 33 | 1011.9 |
| 20260507014339 | 73 | 271 | 5.2 | 7.8 | 0.00 | 0.00 | 0.00 | 32 | 1011.7 |
| 20260507013836 | 74 | 295 | 8.7 | 9.6 | 0.00 | 0.00 | 0.00 | 32 | 1011.4 |
| 20260507013333 | 74 | 187 | 0.9 | 0.9 | 0.00 | 0.00 | 0.00 | 33 | 1011.7 |
| 20260507012831 | 75 | 199 | 2.6 | 2.6 | 0.00 | 0.00 | 0.00 | 33 | 1011.7 |
| 20260507012326 | 74 | 204 | 1.7 | 1.7 | 0.00 | 0.00 | 0.00 | 34 | 1011.7 |
| 20260507011823 | 74 | 263 | 1.7 | 1.7 | 0.00 | 0.00 | 0.00 | 34 | 1011.9 |
| 20260507011320 | 74 | 237 | 3.5 | 5.2 | 0.00 | 0.00 | 0.00 | 36 | 1011.9 |
| 20260507010820 | 74 | 227 | 2.6 | 3.5 | 0.00 | 0.00 | 0.00 | 34 | 1011.8 |
| 20260507010315 | 74 | 330 | 5.2 | 7.0 | 0.00 | 0.00 | 0.00 | 34 | 1011.9 |
| 20260507005813 | 74 | 309 | 3.5 | 6.1 | 0.00 | 0.00 | 0.00 | 33 | 1011.8 |
| 20260507005310 | 74 | 258 | 5.2 | 7.8 | 0.00 | 0.00 | 0.00 | 34 | 1012.0 |
| 20260507004807 | 74 | 325 | 4.3 | 6.1 | 0.00 | 0.00 | 0.00 | 35 | 1011.7 |
| 20260507004304 | 74 | 249 | 4.3 | 6.1 | 0.00 | 0.00 | 0.00 | 37 | 1011.8 |
| 20260507003800 | 74 | 311 | 11.3 | 13.9 | 0.00 | 0.00 | 0.00 | 36 | 1011.7 |
| 20260507003256 | 75 | 283 | 6.1 | 8.7 | 0.00 | 0.00 | 0.00 | 36 | 1011.9 |
| 20260507002752 | 75 | 275 | 4.3 | 5.2 | 0.00 | 0.00 | 0.00 | 37 | 1011.6 |
| 20260507002248 | 75 | 302 | 5.2 | 7.0 | 0.00 | 0.00 | 0.00 | 37 | 1011.7 |
| 20260507001745 | 75 | 226 | 7.8 | 9.6 | 0.00 | 0.00 | 0.00 | 36 | 1011.7 |
| 20260507001242 | 75 | 254 | 4.3 | 7.0 | 0.00 | 0.00 | 0.00 | 38 | 1011.6 |
| 20260507000738 | 75 | 256 | 3.5 | 5.2 | 0.00 | 0.00 | 0.00 | 39 | 1011.6 |
| 20260507000234 | 75 | 260 | 7.8 | 9.6 | 0.00 | 0.00 | 0.00 | 41 | 1011.6 |
| 20260506235731 | 76 | 234 | 3.5 | 3.5 | 0.00 | 0.00 | 0.00 | 40 | 1011.3 |
| 20260506235227 | 75 | 237 | 5.2 | 7.0 | 0.00 | 0.00 | 0.00 | 41 | 1011.4 |
| 20260506234724 | 75 | 262 | 7.8 | 8.7 | 0.00 | 0.00 | 0.00 | 41 | 1011.3 |
| 20260506234221 | 74 | 251 | 8.7 | 12.2 | 0.00 | 0.00 | 0.00 | 42 | 1011.3 |
| 20260506233719 | 74 | 252 | 6.1 | 8.7 | 0.00 | 0.00 | 0.00 | 42 | 1011.9 |
| 20260506233215 | 75 | 233 | 10.4 | 12.2 | 0.00 | 0.00 | 0.00 | 40 | 1011.6 |
| 20260506232711 | 76 | 323 | 5.2 | 7.0 | 0.00 | 0.00 | 0.00 | 40 | 1011.8 |
| 20260506232206 | 76 | 285 | 8.7 | 12.2 | 0.00 | 0.00 | 0.00 | 38 | 1011.7 |
| 20260506231704 | 76 | 238 | 6.1 | 7.8 | 0.00 | 0.00 | 0.00 | 38 | 1011.6 |
| 20260506231203 | 75 | 275 | 7.0 | 8.7 | 0.00 | 0.00 | 0.00 | 38 | 1011.4 |
| 20260506230658 | 75 | 259 | 3.5 | 3.5 | 0.00 | 0.00 | 0.00 | 38 | 1011.4 |
| 20260506230155 | 76 | 293 | 10.4 | 12.2 | 0.00 | 0.00 | 0.00 | 36 | 1011.7 |
| 20260506225652 | 77 | 304 | 8.7 | 9.6 | 0.00 | 0.00 | 0.00 | 35 | 1011.7 |
| 20260506225149 | 77 | 14 | 1.7 | 2.6 | 0.00 | 0.00 | 0.00 | 35 | 1011.4 |
| 20260506224645 | 77 | 242 | 3.5 | 3.5 | 0.00 | 0.00 | 0.00 | 36 | 1011.7 |
| 20260506224142 | 77 | 227 | 6.1 | 7.0 | 0.00 | 0.00 | 0.00 | 34 | 1011.8 |
| 20260506223639 | 77 | 228 | 6.1 | 7.8 | 0.00 | 0.00 | 0.00 | 32 | 1011.6 |
| 20260506223134 | 77 | 228 | 5.2 | 6.1 | 0.00 | 0.00 | 0.00 | 33 | 1011.7 |
| 20260506222632 | 78 | 291 | 7.0 | 7.8 | 0.00 | 0.00 | 0.00 | 32 | 1011.7 |
| 20260506222128 | 79 | 272 | 10.4 | 13.0 | 0.00 | 0.00 | 0.00 | 30 | 1011.7 |
| 20260506221626 | 79 | 292 | 6.1 | 7.8 | 0.00 | 0.00 | 0.00 | 29 | 1011.9 |
| 20260506221123 | 78 | 263 | 7.0 | 9.6 | 0.00 | 0.00 | 0.00 | 29 | 1011.8 |
| 20260506220620 | 79 | 272 | 7.0 | 11.3 | 0.00 | 0.00 | 0.00 | 28 | 1011.8 |
| 20260506220115 | 80 | 214 | 6.1 | 8.7 | 0.00 | 0.00 | 0.00 | 28 | 1012.0 |
| 20260506215612 | 79 | 255 | 4.3 | 5.2 | 0.00 | 0.00 | 0.00 | 29 | 1011.7 |
| 20260506215107 | 78 | 152 | 7.0 | 8.7 | 0.00 | 0.00 | 0.00 | 29 | 1011.9 |
| 20260506214605 | 78 | 255 | 5.2 | 7.0 | 0.00 | 0.00 | 0.00 | 28 | 1011.9 |
| 20260506214102 | 79 | 277 | 8.7 | 12.2 | 0.00 | 0.00 | 0.00 | 28 | 1011.9 |
| 20260506213600 | 80 | 150 | 7.8 | 11.3 | 0.00 | 0.00 | 0.00 | 33 | 1011.4 |
| 20260506213057 | 78 | 173 | 0.9 | 1.7 | 0.00 | 0.00 | 0.00 | 37 | 1011.8 |
| 20260506212554 | 79 | 194 | 2.6 | 5.2 | 0.00 | 0.00 | 0.00 | 36 | 1011.9 |
| 20260506212048 | 79 | 147 | 0.9 | 0.9 | 0.00 | 0.00 | 0.00 | 37 | 1012.1 |
| 20260506211545 | 78 | 190 | 1.7 | 1.7 | 0.00 | 0.00 | 0.00 | 35 | 1012.0 |
| 20260506211042 | 76 | 172 | 7.8 | 11.3 | 0.00 | 0.00 | 0.00 | 37 | 1012.0 |
| 20260506210538 | 77 | 147 | 2.6 | 3.5 | 0.00 | 0.00 | 0.00 | 39 | 1012.1 |
| 20260506210035 | 77 | 181 | 7.8 | 12.2 | 0.00 | 0.00 | 0.00 | 38 | 1011.8 |
| 20260506205532 | 77 | 160 | 6.1 | 7.8 | 0.00 | 0.00 | 0.00 | 37 | 1012.0 |